createdAt,value
2022-12-22T00:00:01.739Z,-20348.47
2022-12-22T00:01:23.123Z,-20347.00
2022-12-22T00:02:44.292Z,-20345.50
2022-12-22T00:04:05.270Z,-20345.88
2022-12-22T00:05:38.819Z,-20348.84
2022-12-22T00:06:59.940Z,-20348.84
2022-12-22T00:08:21.174Z,-20350.13
2022-12-22T00:09:42.420Z,-20348.84
2022-12-22T00:11:03.559Z,-20348.09
2022-12-22T00:12:24.791Z,-20348.47
2022-12-22T00:13:46.021Z,-20349.00
2022-12-22T00:15:07.742Z,-20349.75
2022-12-22T00:16:29.370Z,-20349.56
2022-12-22T00:17:50.590Z,-20349.38
2022-12-22T00:19:11.707Z,-20349.56
2022-12-22T00:20:38.858Z,-20351.22
2022-12-22T00:21:59.955Z,-20351.03
2022-12-22T00:23:21.670Z,-20351.41
2022-12-22T00:24:42.678Z,-20349.38
2022-12-22T00:26:04.649Z,-20349.19
2022-12-22T00:27:33.923Z,-20350.31
2022-12-22T00:28:56.490Z,-20349.56
2022-12-22T00:30:18.456Z,-20349.56
2022-12-22T00:31:40.656Z,-20350.31
2022-12-22T00:33:02.370Z,-20349.19
2022-12-22T00:34:29.311Z,-20347.91
2022-12-22T00:35:53.857Z,-20347.72
2022-12-22T00:37:15.458Z,-20348.09
2022-12-22T00:38:40.066Z,-20349.94
2022-12-22T00:40:01.665Z,-20347.34
2022-12-22T00:41:23.503Z,-20348.84
2022-12-22T00:42:45.116Z,-20348.09
2022-12-22T00:44:07.068Z,-20349.19
2022-12-22T00:45:28.754Z,-20347.53
2022-12-22T00:46:51.353Z,-20349.19
2022-12-22T00:48:13.139Z,-20348.66
2022-12-22T00:49:35.763Z,-20347.72
2022-12-22T00:50:57.239Z,-20348.47
2022-12-22T00:52:18.841Z,-20349.56
2022-12-22T00:53:40.923Z,-20349.56
2022-12-22T00:55:02.538Z,-20347.53
2022-12-22T00:56:25.095Z,-20349.38
2022-12-22T00:57:46.690Z,-20347.72
2022-12-22T00:59:10.453Z,-20348.09
2022-12-22T01:00:37.696Z,-20350.50
2022-12-22T01:01:59.227Z,-20348.84
2022-12-22T01:03:20.964Z,-20348.66
2022-12-22T01:04:42.743Z,-20349.19
2022-12-22T01:06:04.230Z,-20350.31
2022-12-22T01:07:25.716Z,-20349.38
2022-12-22T01:08:47.805Z,-20349.19
2022-12-22T01:10:11.689Z,-20349.75
2022-12-22T01:11:33.154Z,-20347.91
2022-12-22T01:12:57.037Z,-20348.84
2022-12-22T01:14:18.215Z,-20348.47
2022-12-22T01:15:42.028Z,-20349.94
2022-12-22T01:17:03.412Z,-20350.31
2022-12-22T01:18:25.248Z,-20350.31
2022-12-22T01:19:46.664Z,-20348.47
2022-12-22T01:21:10.493Z,-20349.38
2022-12-22T01:22:36.297Z,-20349.75
2022-12-22T01:23:59.016Z,-20348.47
2022-12-22T01:25:20.267Z,-20350.69
2022-12-22T01:26:41.507Z,-20349.75
2022-12-22T01:28:02.862Z,-20349.56
2022-12-22T01:29:24.218Z,-20349.19
2022-12-22T01:30:45.479Z,-20349.94
2022-12-22T01:32:06.548Z,-20349.19
2022-12-22T01:33:32.360Z,-20349.75
2022-12-22T01:34:54.464Z,-20350.50
2022-12-22T01:36:15.462Z,-20350.69
2022-12-22T01:37:36.231Z,-20352.16
2022-12-22T01:38:57.450Z,-20350.31
2022-12-22T01:40:18.588Z,-20351.22
2022-12-22T01:41:40.433Z,-20352.72
2022-12-22T01:43:01.559Z,-20351.59
2022-12-22T01:44:35.164Z,-20351.78
2022-12-22T01:45:56.318Z,-20351.78
2022-12-22T01:47:48.237Z,-20351.03
2022-12-22T01:49:09.595Z,-20348.84
2022-12-22T01:50:48.353Z,-20352.53
2022-12-22T01:52:09.481Z,-20353.25
2022-12-22T01:53:36.963Z,-20354.00
2022-12-22T01:54:58.563Z,-20353.63
2022-12-22T01:56:20.295Z,-20352.91
2022-12-22T01:57:42.043Z,-20353.63
2022-12-22T01:59:08.424Z,-20352.91
2022-12-22T02:00:30.623Z,-20354.56
2022-12-22T02:01:52.062Z,-20354.00
2022-12-22T02:03:13.120Z,-20354.38
2022-12-22T02:04:34.944Z,-20356.59
2022-12-22T02:06:09.143Z,-20358.06
2022-12-22T02:07:42.250Z,-20358.44
2022-12-22T02:09:11.294Z,-20357.34
2022-12-22T02:10:54.137Z,-20358.06
2022-12-22T02:12:29.412Z,-20357.34
2022-12-22T02:14:02.776Z,-20358.06
2022-12-22T02:15:54.672Z,-20358.44
2022-12-22T02:17:18.519Z,-20358.06
2022-12-22T02:19:00.756Z,-20357.50
2022-12-22T02:21:08.069Z,-20359.53
2022-12-22T02:22:44.912Z,-20358.44
2022-12-22T02:24:37.952Z,-20360.28
2022-12-22T02:26:26.084Z,-20359.53
2022-12-22T02:27:48.399Z,-20357.16
2022-12-22T02:29:11.205Z,-20358.44
2022-12-22T02:30:32.473Z,-20357.34
2022-12-22T02:31:56.815Z,-20358.63
2022-12-22T02:33:18.059Z,-20356.22
2022-12-22T02:34:39.538Z,-20357.50
2022-12-22T02:36:03.893Z,-20358.06
2022-12-22T02:37:31.735Z,-20355.47
2022-12-22T02:39:16.141Z,-20357.69
2022-12-22T02:40:48.301Z,-20358.06
2022-12-22T02:42:29.599Z,-20356.97
2022-12-22T02:44:01.744Z,-20358.81
2022-12-22T02:46:18.840Z,-20360.47
2022-12-22T02:48:08.867Z,-20359.91
2022-12-22T02:49:50.598Z,-20361.75
2022-12-22T02:51:37.765Z,-20361.94
2022-12-22T02:53:02.247Z,-20360.84
2022-12-22T02:54:26.483Z,-20361.38
2022-12-22T02:55:49.281Z,-20359.91
2022-12-22T02:57:11.125Z,-20361.38
2022-12-22T02:58:34.058Z,-20361.00
2022-12-22T02:59:55.650Z,-20360.28
2022-12-22T03:01:18.037Z,-20362.13
2022-12-22T03:02:39.679Z,-20360.47
2022-12-22T03:04:01.539Z,-20362.13
2022-12-22T03:05:23.021Z,-20362.13
2022-12-22T03:06:44.981Z,-20363.78
2022-12-22T03:08:08.712Z,-20362.50
2022-12-22T03:09:30.228Z,-20362.88
2022-12-22T03:10:51.592Z,-20361.75
2022-12-22T03:12:12.839Z,-20361.19
2022-12-22T03:13:34.195Z,-20361.75
2022-12-22T03:14:55.251Z,-20360.28
2022-12-22T03:16:16.506Z,-20363.97
2022-12-22T03:17:37.489Z,-20361.00
2022-12-22T03:18:58.258Z,-20363.22
2022-12-22T03:20:19.457Z,-20361.38
2022-12-22T03:21:40.688Z,-20361.00
2022-12-22T03:23:01.973Z,-20362.50
2022-12-22T03:24:23.051Z,-20362.50
2022-12-22T03:25:44.227Z,-20362.13
2022-12-22T03:26:46.814Z,-20361.56
2022-12-22T03:27:49.376Z,-20359.34
2022-12-22T03:28:51.978Z,-20361.38
2022-12-22T03:29:54.539Z,-20361.00
2022-12-22T03:31:00.777Z,-20361.00
2022-12-22T03:32:03.542Z,-20360.66
2022-12-22T03:33:06.388Z,-20359.91
2022-12-22T03:34:08.945Z,-20361.00
2022-12-22T03:35:11.462Z,-20361.19
2022-12-22T03:36:13.983Z,-20361.94
2022-12-22T03:37:16.506Z,-20361.75
2022-12-22T03:38:19.270Z,-20361.38
2022-12-22T03:39:21.786Z,-20362.50
2022-12-22T03:40:24.430Z,-20362.88
2022-12-22T03:41:45.544Z,-20362.88
2022-12-22T03:43:06.522Z,-20364.34
2022-12-22T03:44:41.472Z,-20362.88
2022-12-22T03:46:02.826Z,-20363.22
2022-12-22T03:47:05.518Z,-20364.34
2022-12-22T03:48:08.232Z,-20364.34
2022-12-22T03:49:10.869Z,-20363.97
2022-12-22T03:50:13.402Z,-20361.94
2022-12-22T03:51:15.914Z,-20364.72
2022-12-22T03:52:18.551Z,-20362.88
2022-12-22T03:53:21.196Z,-20362.50
2022-12-22T03:54:26.025Z,-20364.34
2022-12-22T03:55:28.756Z,-20364.53
2022-12-22T03:56:31.877Z,-20365.81
2022-12-22T03:57:34.397Z,-20365.44
2022-12-22T03:58:37.163Z,-20366.56
2022-12-22T03:59:39.676Z,-20366.75
2022-12-22T04:00:42.302Z,-20365.63
2022-12-22T04:01:47.792Z,-20367.28
2022-12-22T04:02:50.500Z,-20365.44
2022-12-22T04:03:53.245Z,-20365.06
2022-12-22T04:04:55.771Z,-20364.72
2022-12-22T04:05:58.287Z,-20366.19
2022-12-22T04:07:00.827Z,-20365.44
2022-12-22T04:08:03.337Z,-20366.00
2022-12-22T04:09:06.571Z,-20368.22
2022-12-22T04:10:28.318Z,-20366.56
2022-12-22T04:11:49.646Z,-20365.06
2022-12-22T04:12:55.649Z,-20368.03
2022-12-22T04:13:58.530Z,-20365.44
2022-12-22T04:15:00.935Z,-20365.81
2022-12-22T04:16:03.596Z,-20366.56
2022-12-22T04:17:07.177Z,-20368.03
2022-12-22T04:18:09.697Z,-20368.22
2022-12-22T04:19:12.357Z,-20368.59
2022-12-22T04:20:14.986Z,-20368.41
2022-12-22T04:21:17.503Z,-20368.03
2022-12-22T04:22:20.028Z,-20368.41
2022-12-22T04:23:22.665Z,-20368.03
2022-12-22T04:24:25.673Z,-20365.06
2022-12-22T04:25:29.770Z,-20362.13
2022-12-22T04:26:32.513Z,-20362.31
2022-12-22T04:27:35.404Z,-20364.53
2022-12-22T04:28:38.207Z,-20363.22
2022-12-22T04:29:40.929Z,-20362.50
2022-12-22T04:30:43.677Z,-20364.53
2022-12-22T04:31:46.496Z,-20366.19
2022-12-22T04:32:49.453Z,-20367.47
2022-12-22T04:33:52.683Z,-20366.19
2022-12-22T04:34:55.693Z,-20367.13
2022-12-22T04:35:58.685Z,-20365.06
2022-12-22T04:37:11.364Z,-20365.44
2022-12-22T04:38:19.809Z,-20364.91
2022-12-22T04:39:22.928Z,-20365.25
2022-12-22T04:40:26.055Z,-20363.97
2022-12-22T04:41:29.186Z,-20366.00
2022-12-22T04:42:32.415Z,-20364.72
2022-12-22T04:43:35.899Z,-20364.53
2022-12-22T04:44:39.041Z,-20364.72
2022-12-22T04:45:42.159Z,-20364.72
2022-12-22T04:46:46.705Z,-20365.63
2022-12-22T04:47:49.825Z,-20366.56
2022-12-22T04:48:59.349Z,-20364.91
2022-12-22T04:50:03.028Z,-20364.34
2022-12-22T04:51:06.516Z,-20363.97
2022-12-22T04:52:09.635Z,-20363.59
2022-12-22T04:53:12.753Z,-20362.50
2022-12-22T04:54:15.876Z,-20364.16
2022-12-22T04:55:19.237Z,-20362.69
2022-12-22T04:56:22.489Z,-20363.78
2022-12-22T04:57:25.600Z,-20363.97
2022-12-22T04:58:29.683Z,-20364.34
2022-12-22T04:59:32.926Z,-20364.34
2022-12-22T05:00:36.291Z,-20363.06
2022-12-22T05:01:39.701Z,-20364.72
2022-12-22T05:02:43.361Z,-20365.63
2022-12-22T05:03:47.346Z,-20364.53
2022-12-22T05:04:50.703Z,-20363.97
2022-12-22T05:05:54.062Z,-20362.50
2022-12-22T05:06:57.310Z,-20360.28
2022-12-22T05:08:00.539Z,-20362.50
2022-12-22T05:09:04.385Z,-20361.75
2022-12-22T05:10:07.990Z,-20362.50
2022-12-22T05:11:11.005Z,-20362.50
2022-12-22T05:12:32.351Z,-20362.88
2022-12-22T05:13:35.345Z,-20362.50
2022-12-22T05:14:37.992Z,-20362.88
2022-12-22T05:15:40.871Z,-20362.88
2022-12-22T05:16:43.613Z,-20364.16
2022-12-22T05:17:46.514Z,-20362.13
2022-12-22T05:18:49.104Z,-20363.97
2022-12-22T05:19:51.728Z,-20365.44
2022-12-22T05:20:54.322Z,-20363.59
2022-12-22T05:21:56.891Z,-20363.41
2022-12-22T05:22:59.768Z,-20361.75
2022-12-22T05:24:02.296Z,-20362.31
2022-12-22T05:25:05.251Z,-20362.88
2022-12-22T05:26:08.537Z,-20363.59
2022-12-22T05:27:12.451Z,-20362.50
2022-12-22T05:28:14.974Z,-20361.75
2022-12-22T05:29:17.739Z,-20363.59
2022-12-22T05:30:21.094Z,-20363.78
2022-12-22T05:31:25.658Z,-20362.13
2022-12-22T05:32:28.459Z,-20365.06
2022-12-22T05:33:31.179Z,-20365.63
2022-12-22T05:34:33.745Z,-20365.06
2022-12-22T05:35:36.262Z,-20363.97
2022-12-22T05:36:38.881Z,-20362.88
2022-12-22T05:37:41.553Z,-20364.53
2022-12-22T05:38:47.553Z,-20362.50
2022-12-22T05:39:50.183Z,-20363.59
2022-12-22T05:40:56.800Z,-20364.72
2022-12-22T05:42:02.427Z,-20365.63
2022-12-22T05:43:05.915Z,-20364.91
2022-12-22T05:44:08.547Z,-20364.34
2022-12-22T05:45:19.350Z,-20363.41
2022-12-22T05:46:23.761Z,-20361.94
2022-12-22T05:47:26.547Z,-20362.31
2022-12-22T05:48:35.335Z,-20362.88
2022-12-22T05:49:40.230Z,-20362.88
2022-12-22T05:50:42.760Z,-20362.31
2022-12-22T05:51:46.589Z,-20364.34
2022-12-22T05:52:49.716Z,-20362.88
2022-12-22T05:53:52.351Z,-20363.59
2022-12-22T05:54:54.880Z,-20363.97
2022-12-22T05:55:58.240Z,-20364.53
2022-12-22T05:57:00.878Z,-20363.22
2022-12-22T05:58:03.395Z,-20364.16
2022-12-22T05:59:05.917Z,-20363.59
2022-12-22T06:00:13.117Z,-20363.78
2022-12-22T06:01:15.636Z,-20364.16
2022-12-22T06:02:18.234Z,-20362.50
2022-12-22T06:03:20.994Z,-20361.38
2022-12-22T06:04:23.831Z,-20361.75
2022-12-22T06:05:26.448Z,-20363.22
2022-12-22T06:06:28.959Z,-20362.50
2022-12-22T06:07:31.494Z,-20362.13
2022-12-22T06:08:34.006Z,-20365.06
2022-12-22T06:09:36.534Z,-20364.72
2022-12-22T06:10:39.044Z,-20363.97
2022-12-22T06:11:41.576Z,-20363.22
2022-12-22T06:12:44.214Z,-20362.69
2022-12-22T06:13:46.847Z,-20362.50
2022-12-22T06:14:50.929Z,-20363.59
2022-12-22T06:15:53.876Z,-20362.69
2022-12-22T06:16:56.453Z,-20362.31
2022-12-22T06:17:58.974Z,-20363.59
2022-12-22T06:19:01.496Z,-20362.88
2022-12-22T06:20:05.220Z,-20365.25
2022-12-22T06:21:07.739Z,-20361.75
2022-12-22T06:22:10.382Z,-20363.78
2022-12-22T06:23:13.023Z,-20363.06
2022-12-22T06:24:15.552Z,-20363.06
2022-12-22T06:25:19.046Z,-20362.88
2022-12-22T06:26:21.789Z,-20361.75
2022-12-22T06:27:24.558Z,-20363.22
2022-12-22T06:28:27.907Z,-20363.59
2022-12-22T06:29:30.555Z,-20362.88
2022-12-22T06:30:34.090Z,-20365.06
2022-12-22T06:31:37.214Z,-20365.06
2022-12-22T06:32:40.541Z,-20365.63
2022-12-22T06:33:43.279Z,-20366.56
2022-12-22T06:34:46.159Z,-20364.34
2022-12-22T06:35:53.879Z,-20364.34
2022-12-22T06:37:01.284Z,-20364.91
2022-12-22T06:38:04.286Z,-20363.97
2022-12-22T06:39:07.411Z,-20362.88
2022-12-22T06:40:11.038Z,-20364.34
2022-12-22T06:41:14.151Z,-20365.06
2022-12-22T06:42:35.620Z,-20363.06
2022-12-22T06:43:38.742Z,-20365.25
2022-12-22T06:44:41.860Z,-20365.44
2022-12-22T06:45:45.578Z,-20366.94
2022-12-22T06:46:48.904Z,-20366.38
2022-12-22T06:47:52.185Z,-20364.91
2022-12-22T06:48:55.302Z,-20363.22
2022-12-22T06:49:58.436Z,-20365.06
2022-12-22T06:51:01.680Z,-20365.06
2022-12-22T06:52:08.872Z,-20362.50
2022-12-22T06:53:12.235Z,-20361.00
2022-12-22T06:54:18.412Z,-20361.75
2022-12-22T06:55:25.433Z,-20363.78
2022-12-22T06:56:28.556Z,-20362.88
2022-12-22T06:57:31.682Z,-20362.13
2022-12-22T06:58:34.968Z,-20361.75
2022-12-22T06:59:38.041Z,-20362.88
2022-12-22T07:00:41.414Z,-20361.94
2022-12-22T07:01:44.735Z,-20361.38
2022-12-22T07:02:48.128Z,-20361.56
2022-12-22T07:03:51.643Z,-20363.22
2022-12-22T07:04:54.863Z,-20361.38
2022-12-22T07:05:58.090Z,-20362.50
2022-12-22T07:07:01.333Z,-20364.16
2022-12-22T07:08:08.740Z,-20363.97
2022-12-22T07:09:12.620Z,-20362.50
2022-12-22T07:10:15.986Z,-20363.22
2022-12-22T07:11:19.111Z,-20362.31
2022-12-22T07:12:23.063Z,-20362.69
2022-12-22T07:13:28.234Z,-20362.50
2022-12-22T07:14:31.166Z,-20362.88
2022-12-22T07:15:34.175Z,-20364.34
2022-12-22T07:16:37.153Z,-20362.88
2022-12-22T07:17:42.032Z,-20364.53
2022-12-22T07:18:44.805Z,-20363.97
2022-12-22T07:19:47.915Z,-20365.63
2022-12-22T07:20:50.680Z,-20366.00
2022-12-22T07:21:53.493Z,-20363.59
2022-12-22T07:22:56.198Z,-20366.38
2022-12-22T07:23:58.841Z,-20363.97
2022-12-22T07:25:01.487Z,-20361.38
2022-12-22T07:26:05.087Z,-20361.00
2022-12-22T07:27:07.725Z,-20358.63
2022-12-22T07:28:15.095Z,-20362.13
2022-12-22T07:29:21.235Z,-20364.34
2022-12-22T07:30:23.737Z,-20361.75
2022-12-22T07:31:26.285Z,-20362.31
2022-12-22T07:32:28.780Z,-20360.47
2022-12-22T07:33:31.542Z,-20361.38
2022-12-22T07:34:34.178Z,-20361.00
2022-12-22T07:35:36.899Z,-20362.69
2022-12-22T07:36:39.819Z,-20359.00
2022-12-22T07:37:42.426Z,-20359.19
2022-12-22T07:38:47.825Z,-20359.53
2022-12-22T07:39:50.379Z,-20359.19
2022-12-22T07:41:02.925Z,-20363.22
2022-12-22T07:42:29.400Z,-20361.56
2022-12-22T07:43:32.726Z,-20361.94
2022-12-22T07:44:35.273Z,-20361.00
2022-12-22T07:45:38.503Z,-20361.38
2022-12-22T07:46:41.317Z,-20361.38
2022-12-22T07:47:44.517Z,-20363.59
2022-12-22T07:49:05.510Z,-20361.00
2022-12-22T07:50:28.665Z,-20365.06
2022-12-22T07:51:35.392Z,-20362.88
2022-12-22T07:52:37.912Z,-20361.38
2022-12-22T07:53:40.549Z,-20362.50
2022-12-22T07:54:43.076Z,-20362.50
2022-12-22T07:55:45.600Z,-20361.00
2022-12-22T07:56:48.240Z,-20361.19
2022-12-22T07:57:51.475Z,-20361.56
2022-12-22T07:58:55.319Z,-20361.00
2022-12-22T07:59:57.836Z,-20361.75
2022-12-22T08:01:01.314Z,-20364.34
2022-12-22T08:02:04.117Z,-20362.88
2022-12-22T08:03:07.092Z,-20364.34
2022-12-22T08:04:13.018Z,-20364.53
2022-12-22T08:05:16.610Z,-20363.97
2022-12-22T08:06:19.461Z,-20363.41
2022-12-22T08:07:22.589Z,-20365.81
2022-12-22T08:08:25.202Z,-20366.94
2022-12-22T08:09:27.720Z,-20367.66
2022-12-22T08:10:30.249Z,-20368.22
2022-12-22T08:11:32.783Z,-20369.13
2022-12-22T08:12:35.327Z,-20367.13
2022-12-22T08:13:38.055Z,-20367.28
2022-12-22T08:14:40.580Z,-20365.06
2022-12-22T08:15:43.087Z,-20366.56
2022-12-22T08:16:45.680Z,-20367.28
2022-12-22T08:17:48.974Z,-20369.50
2022-12-22T08:18:51.635Z,-20369.13
2022-12-22T08:19:55.212Z,-20370.81
2022-12-22T08:20:57.741Z,-20370.25
2022-12-22T08:22:01.378Z,-20370.97
2022-12-22T08:23:03.859Z,-20369.88
2022-12-22T08:24:06.982Z,-20368.41
2022-12-22T08:25:09.622Z,-20365.44
2022-12-22T08:26:15.141Z,-20366.38
2022-12-22T08:27:26.182Z,-20368.78
2022-12-22T08:28:31.949Z,-20367.28
2022-12-22T08:29:43.248Z,-20367.66
2022-12-22T08:30:46.353Z,-20364.72
2022-12-22T08:31:49.107Z,-20367.13
2022-12-22T08:32:52.242Z,-20367.28
2022-12-22T08:33:59.322Z,-20368.22
2022-12-22T08:35:02.207Z,-20367.47
2022-12-22T08:36:08.260Z,-20369.13
2022-12-22T08:37:17.451Z,-20369.50
2022-12-22T08:38:20.454Z,-20365.81
2022-12-22T08:39:25.976Z,-20367.28
2022-12-22T08:40:32.813Z,-20366.56
2022-12-22T08:41:52.665Z,-20366.56
2022-12-22T08:43:03.175Z,-20367.13
2022-12-22T08:44:06.294Z,-20365.44
2022-12-22T08:45:11.615Z,-20368.41
2022-12-22T08:46:14.814Z,-20368.41
2022-12-22T08:47:18.484Z,-20370.25
2022-12-22T08:48:21.661Z,-20369.50
2022-12-22T08:49:25.383Z,-20369.13
2022-12-22T08:50:28.633Z,-20370.97
2022-12-22T08:51:31.869Z,-20368.22
2022-12-22T08:52:34.995Z,-20369.50
2022-12-22T08:54:03.822Z,-20369.88
2022-12-22T08:55:01.403Z,-20368.78
2022-12-22T08:56:04.511Z,-20368.41
2022-12-22T08:57:07.889Z,-20370.81
2022-12-22T08:58:11.116Z,-20370.97
2022-12-22T08:59:14.844Z,-20369.13
2022-12-22T09:00:18.075Z,-20368.41
2022-12-22T09:01:23.576Z,-20370.25
2022-12-22T09:02:27.088Z,-20369.50
2022-12-22T09:03:30.644Z,-20369.50
2022-12-22T09:04:34.649Z,-20370.06
2022-12-22T09:05:39.097Z,-20368.97
2022-12-22T09:06:42.475Z,-20370.97
2022-12-22T09:07:47.610Z,-20370.97
2022-12-22T09:08:56.256Z,-20372.84
2022-12-22T09:09:59.383Z,-20371.72
2022-12-22T09:11:06.347Z,-20372.47
2022-12-22T09:12:09.459Z,-20372.66
2022-12-22T09:13:12.701Z,-20369.13
2022-12-22T09:14:16.184Z,-20369.31
2022-12-22T09:15:19.190Z,-20368.41
2022-12-22T09:16:23.329Z,-20368.03
2022-12-22T09:17:26.271Z,-20368.41
2022-12-22T09:18:28.909Z,-20366.94
2022-12-22T09:19:31.679Z,-20366.56
2022-12-22T09:20:34.192Z,-20366.19
2022-12-22T09:21:37.435Z,-20367.47
2022-12-22T09:22:40.555Z,-20367.28
2022-12-22T09:23:44.313Z,-20365.81
2022-12-22T09:24:46.853Z,-20367.28
2022-12-22T09:25:49.683Z,-20364.16
2022-12-22T09:26:52.251Z,-20362.13
2022-12-22T09:27:54.888Z,-20359.72
2022-12-22T09:28:58.011Z,-20364.34
2022-12-22T09:30:00.729Z,-20366.56
2022-12-22T09:31:04.137Z,-20368.41
2022-12-22T09:32:07.516Z,-20370.97
2022-12-22T09:33:10.093Z,-20371.72
2022-12-22T09:34:17.706Z,-20372.09
2022-12-22T09:35:20.815Z,-20372.66
2022-12-22T09:36:26.540Z,-20373.38
2022-12-22T09:37:29.097Z,-20372.47
2022-12-22T09:38:31.827Z,-20373.94
2022-12-22T09:39:34.462Z,-20371.16
2022-12-22T09:40:37.381Z,-20375.03
2022-12-22T09:41:49.735Z,-20374.31
2022-12-22T09:42:52.227Z,-20375.03
2022-12-22T09:43:56.615Z,-20380.41
2022-12-22T09:44:59.346Z,-20380.59
2022-12-22T09:46:02.523Z,-20382.06
2022-12-22T09:47:17.087Z,-20381.88
2022-12-22T09:48:20.225Z,-20381.88
2022-12-22T09:49:23.482Z,-20385.75
2022-12-22T09:50:27.674Z,-20387.41
2022-12-22T09:51:31.386Z,-20386.88
2022-12-22T09:52:33.907Z,-20388.53
2022-12-22T09:53:36.427Z,-20389.81
2022-12-22T09:54:38.948Z,-20391.84
2022-12-22T09:55:45.066Z,-20395.16
2022-12-22T09:56:47.851Z,-20395.16
2022-12-22T09:57:51.428Z,-20394.97
2022-12-22T09:58:53.953Z,-20396.66
2022-12-22T10:00:17.967Z,-20402.38
2022-12-22T10:01:46.851Z,-20413.63
2022-12-22T10:03:04.409Z,-20418.25
2022-12-22T10:04:36.338Z,-20430.44
2022-12-22T10:06:04.056Z,-20428.41
2022-12-22T10:07:30.799Z,-20437.44
2022-12-22T10:08:36.578Z,-20439.28
2022-12-22T10:09:50.365Z,-20442.63
2022-12-22T10:10:55.909Z,-20445.56
2022-12-22T10:12:01.178Z,-20448.16
2022-12-22T10:13:05.479Z,-20450.19
2022-12-22T10:14:11.009Z,-20450.72
2022-12-22T10:15:20.002Z,-20448.34
2022-12-22T10:16:27.397Z,-20445.56
2022-12-22T10:17:32.871Z,-20438.19
2022-12-22T10:18:35.613Z,-20445.19
2022-12-22T10:19:38.128Z,-20448.16
2022-12-22T10:20:42.451Z,-20452.94
2022-12-22T10:21:50.012Z,-20452.59
2022-12-22T10:23:02.862Z,-20451.28
2022-12-22T10:24:29.168Z,-19804.28
2022-12-22T10:27:04.558Z,-14947.81
2022-12-22T10:28:12.578Z,-16229.59
2022-12-22T10:29:17.987Z,-17183.22
2022-12-22T10:30:29.750Z,-19420.84
2022-12-22T10:31:37.115Z,-20376.72
2022-12-22T10:32:40.074Z,-20373.75
2022-12-22T10:33:47.612Z,-20374.31
2022-12-22T10:35:01.317Z,-20373.75
2022-12-22T10:36:04.196Z,-20365.44
2022-12-22T10:37:06.960Z,-20364.72
2022-12-22T10:38:24.482Z,-20362.13
2022-12-22T10:39:30.853Z,-20360.84
2022-12-22T10:40:44.160Z,-20359.34
2022-12-22T10:41:49.567Z,-20360.28
2022-12-22T10:42:56.290Z,-20359.19
2022-12-22T10:44:03.011Z,-20359.91
2022-12-22T10:45:06.609Z,-20358.63
2022-12-22T10:46:09.817Z,-20360.84
2022-12-22T10:47:24.705Z,-20366.56
2022-12-22T10:48:36.159Z,-20369.88
2022-12-22T10:50:48.984Z,-20370.97
2022-12-22T10:51:57.621Z,-20378.94
2022-12-22T10:53:03.629Z,-20378.19
2022-12-22T10:54:07.347Z,-20392.03
2022-12-22T10:55:19.945Z,-20396.09
2022-12-22T10:56:31.467Z,-20413.06
2022-12-22T10:57:34.590Z,-20424.34
2022-12-22T10:59:20.562Z,-20453.88
2022-12-22T11:00:29.469Z,-20453.31
2022-12-22T11:01:35.668Z,-18835.19
2022-12-22T11:02:39.907Z,-14654.28
2022-12-22T11:03:43.308Z,-11109.38
2022-12-22T11:04:47.009Z,-7235.91
2022-12-22T11:05:50.202Z,-5946.91
2022-12-22T11:06:55.263Z,-5625.66
2022-12-22T11:08:15.893Z,-4658.50
2022-12-22T11:09:35.688Z,-2722.81
2022-12-22T11:10:48.292Z,-1109.50
2022-12-22T11:11:54.292Z,3743.84
2022-12-22T11:13:18.654Z,10885.78
2022-12-22T11:14:53.100Z,33437.56
2022-12-22T11:16:09.301Z,83604.03
2022-12-22T11:17:31.142Z,140680.56
2022-12-22T11:18:41.467Z,148757.34
2022-12-22T11:19:55.991Z,149012.44
2022-12-22T11:21:24.303Z,149174.09
2022-12-22T11:23:14.710Z,149208.13
2022-12-22T11:24:23.473Z,149197.16
2022-12-22T11:25:58.035Z,149275.00
2022-12-22T11:27:08.357Z,149228.78
2022-12-22T11:28:32.052Z,149044.03
2022-12-22T11:30:10.593Z,149023.34
2022-12-22T11:31:41.659Z,149206.94
2022-12-22T11:32:43.927Z,149048.88
2022-12-22T11:34:21.636Z,149136.44
2022-12-22T11:35:33.254Z,148935.88
2022-12-22T11:37:28.331Z,148890.94
2022-12-22T11:38:33.740Z,149013.66
2022-12-22T11:39:39.408Z,149123.03
2022-12-22T11:40:46.943Z,148984.50
2022-12-22T11:41:49.335Z,148999.03
2022-12-22T11:43:16.465Z,149099.94
2022-12-22T11:44:40.219Z,149216.63
2022-12-22T11:46:13.848Z,149260.38
2022-12-22T11:48:06.716Z,149277.41
2022-12-22T11:49:21.038Z,149434.34
2022-12-22T11:51:00.896Z,149281.06
2022-12-22T11:52:03.743Z,149099.94
2022-12-22T11:53:37.823Z,149188.66
2022-12-22T11:54:56.305Z,149165.56
2022-12-22T11:56:21.264Z,149155.84
2022-12-22T11:57:35.570Z,149174.09
2022-12-22T11:59:04.110Z,149219.06
2022-12-22T12:00:18.405Z,149244.59
2022-12-22T12:01:26.290Z,149253.09
2022-12-22T12:02:44.391Z,149276.22
2022-12-22T12:04:28.383Z,149352.84
2022-12-22T12:05:48.631Z,149340.69
2022-12-22T12:07:21.935Z,149391.75
2022-12-22T12:08:30.641Z,149318.75
2022-12-22T12:10:02.560Z,149406.38
2022-12-22T12:11:27.763Z,149397.81
2022-12-22T12:12:45.995Z,149323.59
2022-12-22T12:14:27.519Z,149082.91
2022-12-22T12:15:47.012Z,148931.03
2022-12-22T12:16:59.696Z,148880.03
2022-12-22T12:18:37.842Z,148853.31
2022-12-22T12:19:58.004Z,148967.47
2022-12-22T12:21:24.768Z,148929.81
2022-12-22T12:22:52.970Z,148875.19
2022-12-22T12:24:21.536Z,148780.41
2022-12-22T12:25:31.640Z,148621.38
2022-12-22T12:27:13.392Z,148446.59
2022-12-22T12:28:28.878Z,148512.09
2022-12-22T12:29:41.100Z,148501.19
2022-12-22T12:30:55.915Z,148497.56
2022-12-22T12:32:04.936Z,148582.56
2022-12-22T12:33:23.472Z,148605.59
2022-12-22T12:34:27.799Z,148580.13
2022-12-22T12:35:46.028Z,148614.13
2022-12-22T12:37:25.846Z,148576.44
2022-12-22T12:40:17.241Z,148767.03
2022-12-22T12:41:37.171Z,148640.78
2022-12-22T12:42:42.561Z,148498.78
2022-12-22T12:43:47.843Z,148410.19
2022-12-22T12:44:53.248Z,148347.13
2022-12-22T12:45:56.366Z,148381.09
2022-12-22T12:47:08.444Z,148385.97
2022-12-22T12:48:23.981Z,148412.63
2022-12-22T12:49:36.583Z,148463.59
2022-12-22T12:50:39.714Z,148588.63
2022-12-22T12:51:48.951Z,148643.19
2022-12-22T12:52:52.060Z,148677.19
2022-12-22T12:54:43.071Z,148844.81
2022-12-22T12:55:55.440Z,148983.28
2022-12-22T12:57:07.550Z,149085.31
2022-12-22T12:58:12.703Z,149063.44
2022-12-22T12:59:41.403Z,149035.50
2022-12-22T13:00:49.937Z,148929.81
2022-12-22T13:01:59.347Z,148968.66
2022-12-22T13:03:08.884Z,148871.50
2022-12-22T13:04:13.029Z,148893.38
2022-12-22T13:05:32.038Z,148910.41
2022-12-22T13:06:49.966Z,148979.63
2022-12-22T13:08:07.461Z,148922.53
2022-12-22T13:11:03.253Z,148799.81
2022-12-22T13:12:49.211Z,148784.06
2022-12-22T13:13:52.990Z,148835.06
2022-12-22T13:15:01.896Z,148797.38
2022-12-22T13:16:05.029Z,148881.25
2022-12-22T13:17:52.935Z,148717.28
2022-12-22T13:19:00.259Z,148697.84
2022-12-22T13:20:03.741Z,148728.19
2022-12-22T13:21:42.405Z,148601.94
2022-12-22T13:22:29.547Z,148530.31
2022-12-22T13:24:05.841Z,148580.13
2022-12-22T13:25:04.236Z,148503.63
2022-12-22T13:26:08.323Z,148567.97
2022-12-22T13:27:12.037Z,148550.97
2022-12-22T13:28:16.746Z,148512.09
2022-12-22T13:29:32.124Z,148513.31
2022-12-22T13:30:34.903Z,148444.16
2022-12-22T13:31:42.476Z,148456.31
2022-12-22T13:32:49.894Z,148593.47
2022-12-22T13:34:05.491Z,148594.69
2022-12-22T13:35:33.760Z,148439.31
2022-12-22T13:36:38.017Z,148478.13
2022-12-22T13:37:48.414Z,148439.31
2022-12-22T13:39:05.816Z,148370.19
2022-12-22T13:40:14.380Z,148318.06
2022-12-22T13:41:26.475Z,148316.81
2022-12-22T13:42:31.675Z,148290.16